Time;durP1;ratioP1;P1;durP2;ratioP2;P2;SDS_P1;SDS_P2;PMS_P1;PMS_P2;Temp;Humidity;BMP_temperature;BMP_pressure;BME280_temperature;BME280_humidity;BME280_pressure;Samples;Min_cycle;Max_cycle;Signal;HPM_P1;HPM_P2
2022/12/10 00:00:00;;;;;;;;;;;;;;;7.92;100.00;99176.09;314463;31;835;-77
2022/12/10 00:00:11;;;;;;;;;;;;;;;7.91;100.00;99174.41;312701;31;2668;-78
2022/12/10 00:00:21;;;;;;;;;;;;;;;7.91;100.00;99174.41;308459;31;1986;-78
2022/12/10 00:00:31;;;;;;;;;;;;;;;7.92;100.00;99170.88;305645;32;1307;-77
2022/12/10 00:00:41;;;;;;;;;;;;;;;7.91;100.00;99174.41;299386;33;1260;-77
2022/12/10 00:00:52;;;;;;;;;;;;;;;7.92;100.00;99170.88;299560;32;3068;-77
2022/12/10 00:01:05;;;;;;;;;;;;;;;7.92;100.00;99174.34;297389;33;3761;-77
2022/12/10 00:01:17;;;;;;;;;;;;;;;7.92;100.00;99173.50;295412;33;1354;-79
2022/12/10 00:01:28;;;;;;;;;;;;;;;7.93;100.00;99172.59;295415;33;1374;-77
2022/12/10 00:01:39;;;;;;;;;;;;;;;7.92;100.00;99165.69;297107;33;4895;-77
2022/12/10 00:01:49;;;;;;;;;;;;;;;7.91;100.00;99164.81;293981;33;5434;-77
2022/12/10 00:02:00;;;;;;;;;;;;;;;7.92;100.00;99166.53;294208;33;3325;-77
2022/12/10 00:02:10;;;;;;;;;;;;;;;7.90;100.00;99163.13;290651;33;5087;-78
2022/12/10 00:02:20;;;;;;;;;;;;;;;7.92;100.00;99163.06;286648;34;4183;-78
2022/12/10 00:02:30;;;;;;;;;;;;;;;7.90;100.00;99165.72;285788;34;1273;-78
2022/12/10 00:02:41;;;;;;;;;;;;;;;7.91;100.00;99166.59;285668;34;3062;-78
2022/12/10 00:02:51;;;;;;;;;;;;;;;7.90;100.00;99163.13;285684;34;3812;-78
2022/12/10 00:03:01;;;;;;;;;;;;;;;7.90;100.00;99163.13;284320;34;1107;-78
2022/12/10 00:03:11;;;;;;;;;;;;;;;7.91;100.00;99163.97;288598;34;4742;-78
2022/12/10 00:03:22;;;;;;;;;;;;;;;7.91;100.00;99164.81;285916;34;5214;-78
2022/12/10 00:03:32;;;;;;;;;;;;;;;7.91;100.00;99164.81;284498;34;5640;-78
2022/12/10 00:03:42;;;;;;;;;;;;;;;7.92;100.00;99166.53;283955;34;1309;-78
2022/12/10 00:03:53;;;;;;;;;;;;;;;7.91;100.00;99166.59;283193;34;7435;-78
2022/12/10 00:04:03;;;;;;;;;;;;;;;7.92;100.00;99170.88;281294;35;7920;-78
2022/12/10 00:04:13;;;;;;;;;;;;;;;7.92;100.00;99165.69;280017;35;1370;-78
2022/12/10 00:04:24;;;;;;;;;;;;;;;7.90;100.00;99172.69;277972;35;7933;-78
2022/12/10 00:04:34;;;;;;;;;;;;;;;7.89;100.00;99168.41;278164;35;6096;-78
2022/12/10 00:04:44;;;;;;;;;;;;;;;7.89;100.00;99168.41;281250;35;1234;-78
2022/12/10 00:04:54;;;;;;;;;;;;;;;7.90;100.00;99172.69;279605;35;4670;-78
2022/12/10 00:05:05;;;;;;;;;;;;;;;7.90;100.00;99172.69;281609;34;5478;-78
2022/12/10 00:05:15;;;;;;;;;;;;;;;7.91;100.00;99171.78;284968;34;834;-78
2022/12/10 00:05:25;;;;;;;;;;;;;;;7.91;100.00;99169.19;279264;34;6705;-77
2022/12/10 00:05:39;;;;;;;;;;;;;;;7.92;100.00;99178.69;275935;35;7281;-78
2022/12/10 00:07:41;;;;;;;;;;;;;;;7.94;100.00;99163.88;2505907;27;19922;-78
2022/12/10 00:07:51;;;;;;;;;;;;;;;7.93;100.00;99163.03;356415;27;883;-78
2022/12/10 00:08:02;;;;;;;;;;;;;;;7.93;100.00;99162.16;355014;27;1212;-78
2022/12/10 00:08:12;;;;;;;;;;;;;;;7.93;100.00;99157.81;352142;28;1388;-78
2022/12/10 00:08:22;;;;;;;;;;;;;;;7.95;100.00;99165.56;350720;28;1291;-78
2022/12/10 00:08:32;;;;;;;;;;;;;;;7.93;100.00;99155.19;352263;28;895;-78
2022/12/10 00:08:43;;;;;;;;;;;;;;;7.94;100.00;99163.88;350702;28;1305;-78
2022/12/10 00:08:53;;;;;;;;;;;;;;;7.93;100.00;99163.03;352133;28;1286;-78
2022/12/10 00:09:04;;;;;;;;;;;;;;;7.93;100.00;99156.94;350663;28;1230;-78
2022/12/10 00:09:15;;;;;;;;;;;;;;;7.94;100.00;99163.88;352291;28;811;-78
2022/12/10 00:09:25;;;;;;;;;;;;;;;7.94;100.00;99162.09;350895;28;939;-78
2022/12/10 00:09:36;;;;;;;;;;;;;;;7.94;100.00;99164.72;351510;28;1206;-78
2022/12/10 00:09:46;;;;;;;;;;;;;;;7.95;100.00;99162.97;350833;28;773;-78
2022/12/10 00:09:56;;;;;;;;;;;;;;;7.95;100.00;99165.56;352174;28;1239;-78
2022/12/10 00:10:06;;;;;;;;;;;;;;;7.94;100.00;99169.94;350116;28;1264;-78
2022/12/10 00:10:17;;;;;;;;;;;;;;;7.93;100.00;99164.78;352100;28;1195;-78
2022/12/10 00:10:27;;;;;;;;;;;;;;;7.93;100.00;99168.22;352299;28;851;-78
2022/12/10 00:10:40;;;;;;;;;;;;;;;7.94;100.00;99169.94;350760;28;1341;-78
2022/12/10 00:10:50;;;;;;;;;;;;;;;7.94;100.00;99169.06;349527;28;869;-78
2022/12/10 00:11:03;;;;;;;;;;;;;;;7.92;100.00;99168.28;348917;28;4402;-78
2022/12/10 00:11:14;;;;;;;;;;;;;;;7.91;100.00;99161.38;350429;28;3573;-78
2022/12/10 00:11:24;;;;;;;;;;;;;;;7.91;100.00;99171.78;350564;28;1666;-78
2022/12/10 00:11:36;;;;;;;;;;;;;;;7.90;100.00;99167.50;349901;28;1477;-78
2022/12/10 00:11:46;;;;;;;;;;;;;;;7.88;100.00;99164.94;347988;28;925;-79
2022/12/10 00:11:56;;;;;;;;;;;;;;;7.88;100.00;99161.47;350627;28;1553;-78
2022/12/10 00:12:06;;;;;;;;;;;;;;;7.87;100.00;99165.00;347943;28;1254;-78
2022/12/10 00:12:16;;;;;;;;;;;;;;;7.87;100.00;99167.59;348099;28;1219;-78
2022/12/10 00:12:27;;;;;;;;;;;;;;;7.86;100.00;99165.91;349330;28;1207;-78
2022/12/10 00:12:37;;;;;;;;;;;;;;;7.85;100.00;99161.59;349470;28;1203;-78
2022/12/10 00:12:47;;;;;;;;;;;;;;;7.85;100.00;99169.41;349366;28;1313;-78
2022/12/10 00:12:57;;;;;;;;;;;;;;;7.86;100.00;99158.09;350702;28;1203;-78
2022/12/10 00:13:07;;;;;;;;;;;;;;;7.86;100.00;99160.69;352072;28;1282;-78
2022/12/10 00:13:18;;;;;;;;;;;;;;;7.86;100.00;99161.53;349493;28;1341;-78
2022/12/10 00:13:28;;;;;;;;;;;;;;;7.87;100.00;99162.41;346569;28;1210;-78
2022/12/10 00:13:38;;;;;;;;;;;;;;;7.87;100.00;99157.19;349180;28;1195;-77
2022/12/10 00:13:49;;;;;;;;;;;;;;;7.88;100.00;99153.66;351187;28;1146;-78
2022/12/10 00:13:59;;;;;;;;;;;;;;;7.88;100.00;99157.13;350725;28;1405;-78
2022/12/10 00:14:10;;;;;;;;;;;;;;;7.88;100.00;99162.34;349283;28;890;-78
2022/12/10 00:14:20;;;;;;;;;;;;;;;7.88;100.00;99153.66;347105;28;1276;-78
2022/12/10 00:14:30;;;;;;;;;;;;;;;7.90;100.00;99151.84;345203;28;1267;-78
2022/12/10 00:14:40;;;;;;;;;;;;;;;7.91;100.00;99158.78;345202;28;1445;-78
2022/12/10 00:14:50;;;;;;;;;;;;;;;7.91;100.00;99159.63;346858;28;1113;-78
2022/12/10 00:15:01;;;;;;;;;;;;;;;7.92;100.00;99160.47;345201;28;1204;-78
2022/12/10 00:15:11;;;;;;;;;;;;;;;7.91;100.00;99157.00;343852;28;1269;-78
2022/12/10 00:15:21;;;;;;;;;;;;;;;7.92;100.00;99165.69;345551;28;1323;-78
2022/12/10 00:15:34;;;;;;;;;;;;;;;7.91;100.00;99158.78;346179;28;999;-78
2022/12/10 00:15:44;;;;;;;;;;;;;;;7.91;100.00;99159.63;343847;28;1370;-78
2022/12/10 00:15:54;;;;;;;;;;;;;;;7.91;100.00;99162.22;342260;28;1253;-78
2022/12/10 00:16:05;;;;;;;;;;;;;;;7.92;100.00;99160.47;340411;29;1494;-78
2022/12/10 00:16:16;;;;;;;;;;;;;;;7.91;100.00;99157.00;341242;28;1290;-78
2022/12/10 00:16:27;;;;;;;;;;;;;;;7.92;100.00;99160.47;343743;28;1914;-79
2022/12/10 00:16:37;;;;;;;;;;;;;;;7.92;100.00;99163.06;342717;28;1200;-79
2022/12/10 00:16:47;;;;;;;;;;;;;;;7.92;100.00;99165.69;340140;29;1263;-79
2022/12/10 00:16:57;;;;;;;;;;;;;;;7.92;100.00;99163.91;342516;28;1252;-79
2022/12/10 00:17:07;;;;;;;;;;;;;;;7.92;100.00;99166.53;342465;28;1219;-79
2022/12/10 00:17:18;;;;;;;;;;;;;;;7.93;100.00;99167.38;343676;28;1354;-79
2022/12/10 00:17:28;;;;;;;;;;;;;;;7.94;100.00;99169.06;342629;28;1225;-79
2022/12/10 00:17:38;;;;;;;;;;;;;;;7.93;100.00;99167.38;343403;28;1471;-79
2022/12/10 00:17:48;;;;;;;;;;;;;;;7.94;100.00;99166.47;342697;28;1476;-79
2022/12/10 00:17:59;;;;;;;;;;;;;;;7.94;100.00;99161.25;342742;28;845;-79
2022/12/10 00:18:09;;;;;;;;;;;;;;;7.93;100.00;99159.56;344428;28;1843;-79
2022/12/10 00:18:19;;;;;;;;;;;;;;;7.92;100.00;99160.47;343115;28;2079;-79
2022/12/10 00:18:29;;;;;;;;;;;;;;;7.93;100.00;99168.22;338699;29;778;-79
2022/12/10 00:18:40;;;;;;;;;;;;;;;7.92;100.00;99166.53;340886;28;1645;-78
2022/12/10 00:18:50;;;;;;;;;;;;;;;7.93;100.00;99162.16;339743;29;1344;-78
2022/12/10 00:19:00;;;;;;;;;;;;;;;7.93;100.00;99164.78;338590;29;1326;-78
2022/12/10 00:19:11;;;;;;;;;;;;;;;7.94;100.00;99163.88;338592;29;1195;-78
2022/12/10 00:19:21;;;;;;;;;;;;;;;7.93;100.00;99157.81;338345;29;1382;-78
2022/12/10 00:19:31;;;;;;;;;;;;;;;7.94;100.00;99163.88;339449;29;1482;-78
2022/12/10 00:19:41;;;;;;;;;;;;;;;7.93;100.00;99159.56;339928;29;1197;-78
2022/12/10 00:19:51;;;;;;;;;;;;;;;7.93;100.00;99163.03;341510;28;1890;-78
2022/12/10 00:20:02;;;;;;;;;;;;;;;7.93;100.00;99160.41;338728;29;2010;-78
2022/12/10 00:20:12;;;;;;;;;;;;;;;7.93;100.00;99164.78;332359;29;2784;-78
2022/12/10 00:20:22;;;;;;;;;;;;;;;7.93;100.00;99162.16;331556;29;3545;-78
2022/12/10 00:20:33;;;;;;;;;;;;;;;7.92;100.00;99163.91;328936;29;2483;-78
2022/12/10 00:20:43;;;;;;;;;;;;;;;7.92;100.00;99165.69;327408;30;1899;-78
2022/12/10 00:20:53;;;;;;;;;;;;;;;7.92;100.00;99163.06;326245;30;3493;-78
2022/12/10 00:21:04;;;;;;;;;;;;;;;7.92;100.00;99165.69;327990;29;1501;-78
2022/12/10 00:21:15;;;;;;;;;;;;;;;7.91;100.00;99157.00;327237;30;1240;-78
2022/12/10 00:21:27;;;;;;;;;;;;;;;7.92;100.00;99160.47;325982;30;1298;-79
2022/12/10 00:21:37;;;;;;;;;;;;;;;7.92;100.00;99165.69;325517;30;1824;-79
2022/12/10 00:21:47;;;;;;;;;;;;;;;7.92;100.00;99166.53;325840;29;2520;-79
2022/12/10 00:21:58;;;;;;;;;;;;;;;7.92;100.00;99165.69;327272;30;1321;-79
2022/12/10 00:22:08;;;;;;;;;;;;;;;7.92;100.00;99170.88;320977;30;2765;-79
2022/12/10 00:22:18;;;;;;;;;;;;;;;7.91;100.00;99169.19;319778;30;2656;-79
2022/12/10 00:22:28;;;;;;;;;;;;;;;7.91;100.00;99174.41;320058;30;1202;-79
2022/12/10 00:22:39;;;;;;;;;;;;;;;7.91;100.00;99169.19;317210;30;3226;-79
2022/12/10 00:22:49;;;;;;;;;;;;;;;7.91;100.00;99171.78;316198;31;3257;-78
2022/12/10 00:22:59;;;;;;;;;;;;;;;7.91;100.00;99170.03;315697;31;1205;-78
2022/12/10 00:23:09;;;;;;;;;;;;;;;7.91;100.00;99174.41;312947;31;2859;-78
2022/12/10 00:23:20;;;;;;;;;;;;;;;7.92;100.00;99168.28;310145;31;2111;-78
2022/12/10 00:23:31;;;;;;;;;;;;;;;7.92;100.00;99173.50;308968;32;1226;-78
2022/12/10 00:23:42;;;;;;;;;;;;;;;7.93;100.00;99172.59;308926;32;1278;-78
2022/12/10 00:23:52;;;;;;;;;;;;;;;7.93;100.00;99172.59;308924;31;2716;-78
2022/12/10 00:24:02;;;;;;;;;;;;;;;7.91;100.00;99169.19;306342;32;3855;-78
2022/12/10 00:24:13;;;;;;;;;;;;;;;7.91;100.00;99170.03;303634;32;1355;-78
2022/12/10 00:24:23;;;;;;;;;;;;;;;7.92;100.00;99170.88;300098;32;4309;-78
2022/12/10 00:24:33;;;;;;;;;;;;;;;7.92;100.00;99169.13;297923;32;3803;-78
2022/12/10 00:24:43;;;;;;;;;;;;;;;7.92;100.00;99171.75;299453;33;1246;-78
2022/12/10 00:24:54;;;;;;;;;;;;;;;7.91;100.00;99163.97;301057;32;4104;-78
2022/12/10 00:25:04;;;;;;;;;;;;;;;7.93;100.00;99164.78;299059;32;4692;-78
2022/12/10 00:25:14;;;;;;;;;;;;;;;7.92;100.00;99166.53;299444;33;874;-78
2022/12/10 00:25:24;;;;;;;;;;;;;;;7.92;100.00;99166.53;296599;32;3751;-78
2022/12/10 00:25:35;;;;;;;;;;;;;;;7.92;100.00;99169.13;293099;33;3252;-78
2022/12/10 00:25:45;;;;;;;;;;;;;;;7.92;100.00;99166.53;291849;32;3296;-78
2022/12/10 00:26:00;;;;;;;;;;;;;;;7.93;100.00;99167.38;297423;33;1247;-78
2022/12/10 00:26:12;;;;;;;;;;;;;;;7.92;100.00;99160.47;294533;33;1436;-77
2022/12/10 00:26:23;;;;;;;;;;;;;;;7.92;100.00;99165.69;293838;33;5610;-78
2022/12/10 00:26:35;;;;;;;;;;;;;;;7.92;100.00;99163.91;291601;33;6194;-78
2022/12/10 00:26:45;;;;;;;;;;;;;;;7.93;100.00;99164.78;292526;33;1299;-78
2022/12/10 00:26:56;;;;;;;;;;;;;;;7.94;100.00;99163.88;290589;34;1486;-78
2022/12/10 00:27:06;;;;;;;;;;;;;;;7.93;100.00;99169.97;286695;34;6586;-78
2022/12/10 00:27:16;;;;;;;;;;;;;;;7.93;100.00;99164.78;284627;34;7091;-78
2022/12/10 00:27:26;;;;;;;;;;;;;;;7.93;100.00;99168.22;283080;35;1214;-78
2022/12/10 00:27:36;;;;;;;;;;;;;;;7.93;100.00;99167.38;286269;34;5405;-78
2022/12/10 00:27:47;;;;;;;;;;;;;;;7.93;100.00;99169.97;283891;34;6001;-78
2022/12/10 00:27:57;;;;;;;;;;;;;;;7.93;100.00;99169.97;281237;35;1370;-78
2022/12/10 00:28:07;;;;;;;;;;;;;;;7.93;100.00;99175.19;280173;35;5016;-78
2022/12/10 00:28:17;;;;;;;;;;;;;;;7.92;100.00;99174.34;278477;34;7053;-78
2022/12/10 00:28:28;;;;;;;;;;;;;;;7.92;100.00;99176.94;281329;35;897;-78
2022/12/10 00:30:07;;;;;;;;;;;;;;;7.91;100.00;99171.78;2493572;27;19918;-78
2022/12/10 00:30:17;;;;;;;;;;;;;;;7.91;100.00;99171.78;353459;28;1202;-79
2022/12/10 00:30:27;;;;;;;;;;;;;;;7.92;100.00;99165.69;350836;28;1175;-78
2022/12/10 00:30:38;;;;;;;;;;;;;;;7.91;100.00;99169.19;349274;28;1344;-78
2022/12/10 00:30:48;;;;;;;;;;;;;;;7.92;100.00;99170.88;350775;28;1233;-78
2022/12/10 00:31:02;;;;;;;;;;;;;;;7.92;100.00;99171.75;352207;28;1210;-78
2022/12/10 00:31:23;;;;;;;;;;;;;;;7.90;100.00;99173.56;350775;28;1218;-78
2022/12/10 00:31:34;;;;;;;;;;;;;;;7.91;100.00;99161.38;350166;28;1348;-78
2022/12/10 00:31:44;;;;;;;;;;;;;;;7.92;100.00;99168.28;348882;28;1298;-78
2022/12/10 00:31:54;;;;;;;;;;;;;;;7.91;100.00;99159.63;347889;28;1544;-78
2022/12/10 00:32:05;;;;;;;;;;;;;;;7.92;100.00;99165.69;347734;28;1232;-78
2022/12/10 00:32:16;;;;;;;;;;;;;;;7.92;100.00;99176.09;348526;28;1260;-78
2022/12/10 00:32:26;;;;;;;;;;;;;;;7.91;100.00;99166.59;349262;28;1335;-78
2022/12/10 00:32:36;;;;;;;;;;;;;;;7.91;100.00;99170.03;350798;28;812;-78
2022/12/10 00:32:46;;;;;;;;;;;;;;;7.91;100.00;99174.41;349265;28;1478;-78
2022/12/10 00:32:57;;;;;;;;;;;;;;;7.91;100.00;99169.19;349374;28;1202;-78
2022/12/10 00:33:08;;;;;;;;;;;;;;;7.91;100.00;99171.78;350889;28;1235;-81
2022/12/10 00:33:18;;;;;;;;;;;;;;;7.91;100.00;99158.78;352220;28;1395;-78
2022/12/10 00:33:29;;;;;;;;;;;;;;;7.90;100.00;99164.88;352091;28;1221;-79
2022/12/10 00:33:39;;;;;;;;;;;;;;;7.91;100.00;99163.97;349375;28;1225;-79
2022/12/10 00:33:49;;;;;;;;;;;;;;;7.90;100.00;99167.50;349164;28;1294;-79
2022/12/10 00:34:00;;;;;;;;;;;;;;;7.91;100.00;99166.59;350649;28;1074;-79
2022/12/10 00:34:10;;;;;;;;;;;;;;;7.89;100.00;99161.44;348075;28;1353;-79
2022/12/10 00:34:21;;;;;;;;;;;;;;;7.90;100.00;99162.28;349417;28;1422;-79
2022/12/10 00:34:31;;;;;;;;;;;;;;;7.91;100.00;99169.19;348667;28;1323;-79
2022/12/10 00:34:41;;;;;;;;;;;;;;;7.90;100.00;99163.13;348001;28;906;-78
2022/12/10 00:34:51;;;;;;;;;;;;;;;7.91;100.00;99170.03;347935;28;1303;-78
2022/12/10 00:35:02;;;;;;;;;;;;;;;7.91;100.00;99177.84;348030;28;1227;-78
2022/12/10 00:35:12;;;;;;;;;;;;;;;7.91;100.00;99179.63;347950;28;1296;-78
2022/12/10 00:35:22;;;;;;;;;;;;;;;7.90;100.00;99168.34;347932;28;1276;-78
2022/12/10 00:35:35;;;;;;;;;;;;;;;7.92;100.00;99176.09;347112;28;1216;-78
2022/12/10 00:35:45;;;;;;;;;;;;;;;7.91;100.00;99170.03;346484;28;1419;-78
2022/12/10 00:35:55;;;;;;;;;;;;;;;7.91;100.00;99172.66;346473;28;1275;-78
2022/12/10 00:36:07;;;;;;;;;;;;;;;7.91;100.00;99166.59;349225;28;1204;-78
2022/12/10 00:36:42;;;;;;;;;;;;;;;7.92;100.00;99170.88;346473;28;1332;-78
2022/12/10 00:36:52;;;;;;;;;;;;;;;7.91;100.00;99170.03;345171;28;1358;-77
2022/12/10 00:37:02;;;;;;;;;;;;;;;7.92;100.00;99168.28;343912;28;1607;-77
2022/12/10 00:37:12;;;;;;;;;;;;;;;7.92;100.00;99168.28;342544;28;1221;-78
2022/12/10 00:37:22;;;;;;;;;;;;;;;7.92;100.00;99169.13;342480;28;1192;-77
2022/12/10 00:37:33;;;;;;;;;;;;;;;7.92;100.00;99166.53;341065;29;1331;-77
2022/12/10 00:37:43;;;;;;;;;;;;;;;7.91;100.00;99170.03;339712;28;1243;-78
2022/12/10 00:37:53;;;;;;;;;;;;;;;7.92;100.00;99171.75;342711;28;803;-78
2022/12/10 00:38:03;;;;;;;;;;;;;;;7.92;100.00;99171.75;339846;28;1225;-78
2022/12/10 00:38:13;;;;;;;;;;;;;;;7.91;100.00;99170.03;340497;28;1373;-78
2022/12/10 00:38:24;;;;;;;;;;;;;;;7.92;100.00;99165.69;339968;29;858;-77
2022/12/10 00:38:34;;;;;;;;;;;;;;;7.92;100.00;99171.75;335870;29;1387;-77
2022/12/10 00:38:45;;;;;;;;;;;;;;;7.92;100.00;99166.53;333955;29;4925;-78
2022/12/10 00:38:55;;;;;;;;;;;;;;;7.92;100.00;99163.06;334738;29;2024;-78
2022/12/10 00:39:05;;;;;;;;;;;;;;;7.93;100.00;99167.38;336135;29;1860;-78
2022/12/10 00:39:16;;;;;;;;;;;;;;;7.92;100.00;99160.47;337720;29;3166;-78
2022/12/10 00:39:26;;;;;;;;;;;;;;;7.92;100.00;99163.91;338301;29;1823;-78
2022/12/10 00:39:37;;;;;;;;;;;;;;;7.92;100.00;99174.34;337306;29;1161;-78
2022/12/10 00:39:47;;;;;;;;;;;;;;;7.91;100.00;99175.25;335946;29;1250;-78
2022/12/10 00:39:57;;;;;;;;;;;;;;;7.92;100.00;99168.28;335882;29;1477;-78
2022/12/10 00:40:08;;;;;;;;;;;;;;;7.92;100.00;99165.69;334782;29;915;-78
2022/12/10 00:40:18;;;;;;;;;;;;;;;7.90;100.00;99167.50;333720;29;1809;-78
2022/12/10 00:40:28;;;;;;;;;;;;;;;7.91;100.00;99169.19;329676;29;1958;-78
2022/12/10 00:40:38;;;;;;;;;;;;;;;7.89;100.00;99171.84;328504;30;1065;-78
2022/12/10 00:40:49;;;;;;;;;;;;;;;7.89;100.00;99173.59;331493;29;2082;-78
2022/12/10 00:40:59;;;;;;;;;;;;;;;7.88;100.00;99175.38;330233;29;2076;-78
2022/12/10 00:41:09;;;;;;;;;;;;;;;7.88;100.00;99171.91;328529;30;911;-78
2022/12/10 00:41:20;;;;;;;;;;;;;;;7.87;100.00;99168.44;331774;29;1694;-78
2022/12/10 00:41:30;;;;;;;;;;;;;;;7.89;100.00;99176.22;332049;29;1239;-78
2022/12/10 00:41:40;;;;;;;;;;;;;;;7.88;100.00;99180.56;332293;29;891;-78
2022/12/10 00:41:50;;;;;;;;;;;;;;;7.88;100.00;99179.72;330729;29;1222;-77
2022/12/10 00:42:01;;;;;;;;;;;;;;;7.88;100.00;99177.97;331237;29;1781;-78
2022/12/10 00:42:11;;;;;;;;;;;;;;;7.89;100.00;99182.28;330420;29;1892;-77
2022/12/10 00:42:21;;;;;;;;;;;;;;;7.89;100.00;99182.28;329871;30;1324;-77
2022/12/10 00:42:32;;;;;;;;;;;;;;;7.89;100.00;99186.63;328033;29;2111;-78
2022/12/10 00:42:42;;;;;;;;;;;;;;;7.89;100.00;99187.47;327504;29;2752;-78
2022/12/10 00:42:52;;;;;;;;;;;;;;;7.89;100.00;99186.63;330986;29;1295;-78
2022/12/10 00:43:02;;;;;;;;;;;;;;;7.88;100.00;99184.94;333005;29;2352;-78
2022/12/10 00:43:12;;;;;;;;;;;;;;;7.89;100.00;99181.41;331754;29;2923;-77
2022/12/10 00:43:23;;;;;;;;;;;;;;;7.88;100.00;99185.78;327215;30;1199;-78
2022/12/10 00:43:33;;;;;;;;;;;;;;;7.89;100.00;99181.41;330320;29;1799;-78
2022/12/10 00:43:43;;;;;;;;;;;;;;;7.89;100.00;99178.81;329086;29;1409;-78
2022/12/10 00:43:54;;;;;;;;;;;;;;;7.90;100.00;99183.13;329621;30;1312;-78
2022/12/10 00:44:04;;;;;;;;;;;;;;;7.89;100.00;99181.41;328984;29;1873;-79
2022/12/10 00:44:15;;;;;;;;;;;;;;;7.89;100.00;99176.22;327564;30;2436;-78
2022/12/10 00:44:25;;;;;;;;;;;;;;;7.88;100.00;99175.38;328591;30;883;-78
2022/12/10 00:44:35;;;;;;;;;;;;;;;7.89;100.00;99176.22;330114;29;2835;-79
2022/12/10 00:44:46;;;;;;;;;;;;;;;7.88;100.00;99179.72;331933;29;2796;-78
2022/12/10 00:44:56;;;;;;;;;;;;;;;7.89;100.00;99177.06;331863;29;3341;-78
2022/12/10 00:45:07;;;;;;;;;;;;;;;7.88;100.00;99171.91;323872;30;1192;-78
2022/12/10 00:45:17;;;;;;;;;;;;;;;7.88;100.00;99174.50;320070;30;3279;-79
2022/12/10 00:45:27;;;;;;;;;;;;;;;7.87;100.00;99173.66;318967;30;3015;-79
2022/12/10 00:45:37;;;;;;;;;;;;;;;7.86;100.00;99171.13;320099;30;1409;-79
2022/12/10 00:45:48;;;;;;;;;;;;;;;7.86;100.00;99176.31;323847;30;2344;-78
2022/12/10 00:45:58;;;;;;;;;;;;;;;7.86;100.00;99177.16;323602;30;1851;-79
2022/12/10 00:46:08;;;;;;;;;;;;;;;7.86;100.00;99182.38;318921;30;1257;-77
2022/12/10 00:46:18;;;;;;;;;;;;;;;7.85;100.00;99175.47;322257;30;2718;-78
2022/12/10 00:46:29;;;;;;;;;;;;;;;7.86;100.00;99182.38;318267;30;5606;-80
2022/12/10 00:46:39;;;;;;;;;;;;;;;7.86;100.00;99182.38;317734;30;2104;-79
2022/12/10 00:46:49;;;;;;;;;;;;;;;7.88;100.00;99179.72;315605;31;4045;-78
2022/12/10 00:46:59;;;;;;;;;;;;;;;7.88;100.00;99182.31;316547;30;3969;-78
2022/12/10 00:47:10;;;;;;;;;;;;;;;7.87;100.00;99184.09;317957;31;3749;-78
2022/12/10 00:47:20;;;;;;;;;;;;;;;7.87;100.00;99175.41;314050;31;4593;-78
2022/12/10 00:47:30;;;;;;;;;;;;;;;7.89;100.00;99181.41;313097;31;4508;-78
2022/12/10 00:47:40;;;;;;;;;;;;;;;7.88;100.00;99183.19;314543;31;871;-78
2022/12/10 00:47:50;;;;;;;;;;;;;;;7.89;100.00;99182.28;317028;31;3750;-78
2022/12/10 00:48:01;;;;;;;;;;;;;;;7.90;100.00;99183.13;313977;31;3317;-78
2022/12/10 00:48:11;;;;;;;;;;;;;;;7.89;100.00;99174.47;310174;31;3084;-78
2022/12/10 00:48:21;;;;;;;;;;;;;;;7.89;100.00;99173.59;311019;31;1429;-78
2022/12/10 00:48:31;;;;;;;;;;;;;;;7.89;100.00;99169.25;312807;31;3637;-78
2022/12/10 00:48:42;;;;;;;;;;;;;;;7.90;100.00;99172.69;309496;31;5395;-78
2022/12/10 00:48:52;;;;;;;;;;;;;;;7.89;100.00;99171.84;303522;32;1337;-78
2022/12/10 00:49:02;;;;;;;;;;;;;;;7.90;100.00;99175.31;303064;32;6605;-79
2022/12/10 00:49:13;;;;;;;;;;;;;;;7.89;100.00;99171.84;303256;32;5723;-79
2022/12/10 00:49:24;;;;;;;;;;;;;;;7.91;100.00;99169.19;302569;32;1071;-79
2022/12/10 00:49:34;;;;;;;;;;;;;;;7.90;100.00;99173.56;299659;32;6734;-77
2022/12/10 00:49:44;;;;;;;;;;;;;;;7.89;100.00;99166.63;296455;33;6580;-77
2022/12/10 00:49:54;;;;;;;;;;;;;;;7.90;100.00;99170.09;296437;33;1141;-78
2022/12/10 00:50:05;;;;;;;;;;;;;;;7.90;100.00;99170.94;292464;33;5269;-77
2022/12/10 00:50:15;;;;;;;;;;;;;;;7.90;100.00;99167.50;291086;33;4475;-76
2022/12/10 00:50:27;;;;;;;;;;;;;;;7.90;100.00;99170.09;291798;34;1241;-77
2022/12/10 00:50:37;;;;;;;;;;;;;;;7.90;100.00;99167.50;290526;34;1396;-78
2022/12/10 00:50:56;;;;;;;;;;;;;;;7.91;100.00;99171.78;287176;34;5957;-77
2022/12/10 00:51:06;;;;;;;;;;;;;;;7.90;100.00;99162.28;289738;34;1378;-78
2022/12/10 00:51:18;;;;;;;;;;;;;;;7.90;100.00;99162.28;287341;34;10044;-77
2022/12/10 00:51:28;;;;;;;;;;;;;;;7.90;100.00;99167.50;285027;34;9223;-78
2022/12/10 00:51:38;;;;;;;;;;;;;;;7.89;100.00;99161.44;283057;35;1254;-77
2022/12/10 00:53:34;;;;;;;;;;;;;;;7.86;100.00;99158.94;2506072;27;19941;-78
2022/12/10 00:53:45;;;;;;;;;;;;;;;7.86;100.00;99164.16;354902;27;1223;-77
2022/12/10 00:53:56;;;;;;;;;;;;;;;7.87;100.00;99163.25;353560;28;1341;-79
2022/12/10 00:54:07;;;;;;;;;;;;;;;7.87;100.00;99162.41;352119;28;1293;-78
2022/12/10 00:54:17;;;;;;;;;;;;;;;7.88;100.00;99164.09;352150;28;1258;-78
2022/12/10 00:54:27;;;;;;;;;;;;;;;7.86;100.00;99161.53;350807;28;1211;-77
2022/12/10 00:54:37;;;;;;;;;;;;;;;7.88;100.00;99166.69;349168;28;1235;-78
2022/12/10 00:54:48;;;;;;;;;;;;;;;7.88;100.00;99166.69;349357;28;1257;-78
2022/12/10 00:54:58;;;;;;;;;;;;;;;7.86;100.00;99169.34;350084;28;876;-77
2022/12/10 00:55:08;;;;;;;;;;;;;;;7.88;100.00;99174.50;352036;28;1181;-77
2022/12/10 00:55:18;;;;;;;;;;;;;;;7.87;100.00;99165.00;350728;28;1130;-76
2022/12/10 00:55:29;;;;;;;;;;;;;;;7.87;100.00;99172.81;347939;28;1286;-76
2022/12/10 00:55:39;;;;;;;;;;;;;;;7.87;100.00;99173.66;348151;28;5314;-78
2022/12/10 00:55:49;;;;;;;;;;;;;;;7.88;100.00;99172.75;348056;28;1611;-78
2022/12/10 00:55:59;;;;;;;;;;;;;;;7.88;100.00;99172.75;350603;28;1352;-79
2022/12/10 00:56:10;;;;;;;;;;;;;;;7.88;100.00;99172.75;349270;28;1803;-78
2022/12/10 00:56:21;;;;;;;;;;;;;;;7.88;100.00;99172.75;349371;28;1322;-78
2022/12/10 00:56:32;;;;;;;;;;;;;;;7.87;100.00;99172.81;349338;28;1315;-78
2022/12/10 00:56:42;;;;;;;;;;;;;;;7.89;100.00;99176.22;349423;28;871;-78
2022/12/10 00:56:52;;;;;;;;;;;;;;;7.88;100.00;99167.53;349304;28;1344;-78
2022/12/10 00:57:03;;;;;;;;;;;;;;;7.88;100.00;99166.69;350700;28;1333;-78
2022/12/10 00:57:13;;;;;;;;;;;;;;;7.88;100.00;99164.09;350708;28;796;-78
2022/12/10 00:57:23;;;;;;;;;;;;;;;7.87;100.00;99158.03;349123;28;1540;-78
2022/12/10 00:57:33;;;;;;;;;;;;;;;7.89;100.00;99168.41;349329;28;1176;-78
2022/12/10 00:57:43;;;;;;;;;;;;;;;7.88;100.00;99170.16;350685;28;1216;-79
2022/12/10 00:57:54;;;;;;;;;;;;;;;7.88;100.00;99164.94;347857;28;1204;-78
2022/12/10 00:58:04;;;;;;;;;;;;;;;7.88;100.00;99164.94;343934;28;1401;-78
2022/12/10 00:58:14;;;;;;;;;;;;;;;7.89;100.00;99168.41;346691;28;906;-78
2022/12/10 00:58:27;;;;;;;;;;;;;;;7.88;100.00;99164.09;347894;28;1293;-78
2022/12/10 00:58:38;;;;;;;;;;;;;;;7.87;100.00;99168.44;348096;28;1261;-78
2022/12/10 00:58:48;;;;;;;;;;;;;;;7.89;100.00;99165.78;349496;28;888;-78
2022/12/10 00:58:59;;;;;;;;;;;;;;;7.89;100.00;99171.00;350856;28;1137;-78
2022/12/10 00:59:09;;;;;;;;;;;;;;;7.90;100.00;99172.69;350180;28;1174;-78
2022/12/10 00:59:19;;;;;;;;;;;;;;;7.89;100.00;99171.00;346565;28;1266;-78
2022/12/10 00:59:29;;;;;;;;;;;;;;;7.89;100.00;99176.22;346041;28;1363;-78
2022/12/10 00:59:39;;;;;;;;;;;;;;;7.89;100.00;99165.78;346745;28;1310;-78
2022/12/10 00:59:50;;;;;;;;;;;;;;;7.89;100.00;99163.19;346604;28;1332;-78
2022/12/10 01:00:00;;;;;;;;;;;;;;;7.89;100.00;99166.63;346420;28;1204;-78
2022/12/10 01:00:10;;;;;;;;;;;;;;;7.89;100.00;99163.19;346569;28;1187;-78
2022/12/10 01:00:21;;;;;;;;;;;;;;;7.90;100.00;99167.50;347895;28;1210;-78
2022/12/10 01:00:31;;;;;;;;;;;;;;;7.90;100.00;99167.50;345217;28;1393;-78
2022/12/10 01:00:41;;;;;;;;;;;;;;;7.90;100.00;99157.06;346549;28;1294;-78
2022/12/10 01:00:51;;;;;;;;;;;;;;;7.90;100.00;99164.88;348025;28;1202;-78
2022/12/10 01:01:12;;;;;;;;;;;;;;;7.88;100.00;99154.53;346698;28;1417;-79
2022/12/10 01:01:27;;;;;;;;;;;;;;;7.90;100.00;99157.06;343751;28;1366;-78
2022/12/10 01:01:38;;;;;;;;;;;;;;;7.90;100.00;99157.91;342576;28;864;-78
2022/12/10 01:01:48;;;;;;;;;;;;;;;7.90;100.00;99157.91;343851;28;1231;-78